Thomaston, GA (30286)

12:19 AM EST on February 12, 2016 (GMT -0500)
APRSWXNET | | Change Station
CLOSE
Current Station
Personal Weather Station
Location: Thomaston, GA
Elevation: 692 ft
Nearby Weather Stations

Elev 692 ft 32.89 °N, 84.33 °W | Updated 22 minutes ago

Mostly Cloudy
Mostly Cloudy
41 °F
Feels Like 41 °F
N
0
Wind Variable Wind from North
Gusts 0.0 mph

Today
High -- | Low -- °F
--% Chance of Precip.
Yesterday
High -- | Low -- °F
Precip. -- in
Pressure 30.20 in
Visibility 10.0 miles
Clouds Mostly Cloudy 6500 ft
Mostly Cloudy 7500 ft
Windchill 41 °F
Dew Point 35 °F
Humidity 79%
Rainfall in
Snow Depth Not available.
7:23 AM 6:19 PM
Waxing Crescent, 17% visible
METAR KOPN 120455Z AUTO 04003KT 10SM BKN065 BKN075 07/01 A3020 RMK AO2
Pressure 30.20 in
Visibility 10.0 miles
Clouds Mostly Cloudy 6500 ft
Mostly Cloudy 7500 ft
Windchill 41 °F
Dew Point 35 °F
Humidity 79%
Rainfall in
Snow Depth Not available.
7:23 AM 6:19 PM
Waxing Crescent, 17% visible
METAR KOPN 120455Z AUTO 04003KT 10SM BKN065 BKN075 07/01 A3020 RMK AO2

10-Day Weather Forecast

Almanac

Astronomy

Feb. 12, 2016 Rise Set
Actual Time
Civil Twilight
Nautical Twilight
Astronomical Twilight
Moon
Length of Visible Light
Length of Day
Tomorrow will be .
, % of the Moon is Illuminated

Today's Extremes

State Highs State Lows

Community

WunderPhotos

Upload Photos

1,892,265 photos uploaded!

WunderBlog® & News

Nearby

Air Quality

  Air Quality AQ Index Pollutant
Not available.

Snow Depth

Station Depth Elevation

Earthquake Activity

City Distance Mag. Time & Date
Minimum magnitude displayed is 2.5.

Coastal Water Temperatures

Place Temperature

Stations

Nearby Weather Stations

Station Location Temp. Windchill Dew Point Humidity Wind Precip. Elev Updated Type
                   

Watches & Warnings

There are currently no watches in effect.